createdAt,value
2017-07-07T00:00:10.907Z,4.70
2017-07-07T00:02:38.448Z,4.85
2017-07-07T00:05:05.916Z,4.78
2017-07-07T00:07:33.459Z,5.28
2017-07-07T00:10:00.912Z,6.35
2017-07-07T00:12:28.363Z,6.33
2017-07-07T00:14:55.776Z,4.40
2017-07-07T00:17:23.283Z,4.40
2017-07-07T00:19:50.744Z,5.18
2017-07-07T00:22:18.226Z,4.85
2017-07-07T00:24:45.881Z,4.80
2017-07-07T00:27:13.315Z,4.80
2017-07-07T00:29:40.763Z,7.30
2017-07-07T00:32:08.190Z,4.43
2017-07-07T00:34:35.631Z,4.40
2017-07-07T00:37:03.084Z,4.22
2017-07-07T00:39:30.515Z,4.50
2017-07-07T00:41:58.043Z,4.55
2017-07-07T00:44:25.532Z,5.10
2017-07-07T00:46:52.975Z,8.45
2017-07-07T00:49:20.621Z,4.85
2017-07-07T00:51:48.089Z,5.00
2017-07-07T00:54:15.631Z,5.00
2017-07-07T00:56:43.123Z,4.70
2017-07-07T00:59:10.642Z,4.50
2017-07-07T01:01:38.128Z,4.70
2017-07-07T01:04:05.563Z,4.60
2017-07-07T01:06:33.019Z,5.53
2017-07-07T01:09:00.467Z,4.60
2017-07-07T01:11:28.027Z,6.10
2017-07-07T01:13:55.544Z,4.78
2017-07-07T01:16:22.974Z,4.80
2017-07-07T01:18:50.495Z,5.62
2017-07-07T01:21:17.933Z,4.20
2017-07-07T01:23:45.411Z,4.78
2017-07-07T01:26:12.860Z,5.00
2017-07-07T01:28:40.288Z,4.60
2017-07-07T01:31:07.732Z,4.60
2017-07-07T01:33:35.219Z,4.97
2017-07-07T01:36:02.717Z,4.72
2017-07-07T01:38:30.135Z,4.65
2017-07-07T01:40:57.578Z,4.80
2017-07-07T01:43:25.076Z,6.32
2017-07-07T01:45:52.603Z,4.82
2017-07-07T01:48:20.035Z,5.45
2017-07-07T01:50:47.478Z,5.55
2017-07-07T01:53:15.684Z,5.00
2017-07-07T01:55:43.137Z,5.10
2017-07-07T01:58:10.572Z,4.95
2017-07-07T02:00:38.006Z,5.50
2017-07-07T02:03:06.253Z,4.95
2017-07-07T02:05:33.691Z,5.30
2017-07-07T02:08:01.160Z,4.87
2017-07-07T02:10:28.619Z,5.30
2017-07-07T02:12:56.067Z,4.77
2017-07-07T02:15:23.492Z,4.93
2017-07-07T02:17:50.991Z,7.60
2017-07-07T02:20:18.451Z,6.80
2017-07-07T02:22:45.883Z,8.55
2017-07-07T02:25:13.338Z,13.57
2017-07-07T02:27:40.934Z,17.20
2017-07-07T02:30:08.379Z,17.12
2017-07-07T02:32:35.926Z,17.40
2017-07-07T02:35:03.493Z,17.77
2017-07-07T02:37:36.626Z,20.60
2017-07-07T02:40:04.167Z,19.70
2017-07-07T02:42:31.775Z,24.87
2017-07-07T02:44:59.198Z,24.75
2017-07-07T02:47:26.743Z,23.92
2017-07-07T02:49:55.111Z,25.75
2017-07-07T02:52:22.554Z,24.75
2017-07-07T02:54:50.015Z,52.05
2017-07-07T02:57:17.566Z,25.33
2017-07-07T02:59:45.127Z,25.45
2017-07-07T03:02:12.575Z,29.05
2017-07-07T03:04:40.043Z,28.73
2017-07-07T03:07:07.600Z,28.57
2017-07-07T03:09:35.043Z,28.75
2017-07-07T03:12:02.558Z,28.17
2017-07-07T03:14:30.087Z,28.30
2017-07-07T03:16:57.532Z,29.80
2017-07-07T03:19:24.997Z,29.67
2017-07-07T03:21:52.527Z,31.70
2017-07-07T03:24:20.087Z,29.95
2017-07-07T03:26:47.544Z,29.70
2017-07-07T03:29:15.112Z,28.80
2017-07-07T03:31:42.564Z,28.45
2017-07-07T03:34:10.043Z,31.17
2017-07-07T03:36:37.488Z,30.30
2017-07-07T03:39:04.915Z,28.97
2017-07-07T03:41:32.353Z,28.83
2017-07-07T03:43:59.840Z,29.90
2017-07-07T03:46:27.306Z,26.52
2017-07-07T03:48:54.784Z,27.25
2017-07-07T03:51:22.314Z,24.97
2017-07-07T03:53:49.775Z,28.83
2017-07-07T03:56:17.258Z,25.37
2017-07-07T03:58:44.779Z,21.00
2017-07-07T04:01:12.339Z,14.85
2017-07-07T04:03:39.808Z,16.95
2017-07-07T04:06:07.243Z,13.55
2017-07-07T04:08:34.739Z,15.68
2017-07-07T04:11:02.266Z,13.02
2017-07-07T04:13:29.716Z,11.02
2017-07-07T04:15:57.175Z,10.40
2017-07-07T04:18:24.614Z,11.40
2017-07-07T04:20:52.123Z,10.95
2017-07-07T04:23:19.593Z,11.60
2017-07-07T04:25:47.811Z,9.63
2017-07-07T04:28:15.276Z,9.57
2017-07-07T04:30:42.719Z,8.40
2017-07-07T04:33:10.183Z,8.50
2017-07-07T04:35:37.767Z,8.00
2017-07-07T04:38:05.208Z,10.35
2017-07-07T04:40:32.659Z,7.37
2017-07-07T04:43:00.100Z,7.70
2017-07-07T04:45:27.537Z,7.87
2017-07-07T04:47:55.039Z,7.12
2017-07-07T04:50:22.482Z,6.93
2017-07-07T04:52:50.078Z,7.35
2017-07-07T04:55:17.519Z,6.60
2017-07-07T04:57:44.939Z,7.68
2017-07-07T05:00:12.423Z,7.18
2017-07-07T05:02:39.894Z,7.10
2017-07-07T05:05:07.372Z,6.70
2017-07-07T05:07:35.708Z,7.32
2017-07-07T05:10:03.156Z,7.28
2017-07-07T05:12:30.722Z,7.30
2017-07-07T05:14:58.155Z,8.20
2017-07-07T05:17:25.751Z,6.97
2017-07-07T05:19:53.192Z,7.12
2017-07-07T05:22:20.632Z,8.10
2017-07-07T05:24:48.069Z,7.47
2017-07-07T05:27:15.679Z,7.10
2017-07-07T05:29:43.121Z,7.50
2017-07-07T05:32:10.582Z,6.70
2017-07-07T05:34:38.011Z,7.15
2017-07-07T05:37:05.479Z,9.15
2017-07-07T05:39:32.942Z,7.60
2017-07-07T05:42:00.418Z,7.50
2017-07-07T05:44:27.855Z,7.55
2017-07-07T05:46:55.340Z,7.30
2017-07-07T05:49:22.770Z,7.93
2017-07-07T05:51:50.242Z,7.40
2017-07-07T05:54:17.783Z,7.65
2017-07-07T05:56:45.247Z,7.78
2017-07-07T05:59:12.687Z,8.25
2017-07-07T06:01:40.125Z,11.50
2017-07-07T06:04:07.607Z,9.05
2017-07-07T06:06:35.061Z,8.25
2017-07-07T06:09:02.543Z,9.30
2017-07-07T06:11:30.019Z,9.20
2017-07-07T06:13:58.266Z,9.40
2017-07-07T06:16:25.236Z,9.90
2017-07-07T06:18:52.952Z,10.02
2017-07-07T06:21:19.901Z,10.43
2017-07-07T06:23:47.366Z,10.30
2017-07-07T06:26:14.813Z,11.73
2017-07-07T06:28:42.251Z,11.00
2017-07-07T06:31:09.685Z,10.03
2017-07-07T06:33:37.114Z,10.05
2017-07-07T06:36:05.395Z,12.07
2017-07-07T06:38:33.592Z,11.05
2017-07-07T06:41:01.068Z,10.70
2017-07-07T06:43:28.658Z,12.13
2017-07-07T06:45:56.104Z,10.70
2017-07-07T06:48:23.586Z,11.10
2017-07-07T06:50:51.031Z,11.18
2017-07-07T06:53:18.471Z,11.52
2017-07-07T06:55:45.920Z,11.95
2017-07-07T06:58:13.387Z,13.20
2017-07-07T07:00:40.823Z,11.77
2017-07-07T07:03:08.268Z,12.37
2017-07-07T07:05:35.829Z,12.27
2017-07-07T07:08:03.316Z,12.70
2017-07-07T07:10:30.877Z,13.93
2017-07-07T07:12:58.323Z,12.40
2017-07-07T07:15:25.763Z,13.23
2017-07-07T07:17:53.321Z,13.95
2017-07-07T07:20:20.835Z,14.77
2017-07-07T07:22:49.070Z,15.32
2017-07-07T07:25:16.506Z,26.10
2017-07-07T07:27:43.984Z,18.53
2017-07-07T07:30:11.423Z,16.10
2017-07-07T07:32:39.000Z,15.05
2017-07-07T07:35:06.493Z,14.90
2017-07-07T07:37:33.948Z,17.37
2017-07-07T07:40:01.392Z,16.58
2017-07-07T07:42:28.847Z,16.67
2017-07-07T07:44:56.295Z,17.20
2017-07-07T07:47:23.838Z,18.45
2017-07-07T07:49:51.303Z,18.00
2017-07-07T07:52:18.754Z,17.40
2017-07-07T07:54:46.331Z,16.10
2017-07-07T07:57:13.764Z,15.80
2017-07-07T07:59:41.340Z,16.42
2017-07-07T08:02:08.775Z,18.30
2017-07-07T08:04:36.244Z,17.45
2017-07-07T08:07:03.715Z,17.85
2017-07-07T08:09:32.065Z,17.50
2017-07-07T08:11:59.527Z,17.85
2017-07-07T08:14:27.069Z,17.77
2017-07-07T08:16:54.533Z,17.23
2017-07-07T08:19:21.998Z,16.77
2017-07-07T08:21:49.492Z,16.62
2017-07-07T08:24:17.714Z,16.25
2017-07-07T08:26:45.186Z,17.47
2017-07-07T08:29:12.644Z,16.80
2017-07-07T08:31:40.203Z,17.52
2017-07-07T08:34:07.670Z,17.48
2017-07-07T08:36:35.143Z,17.95
2017-07-07T08:39:02.610Z,18.30
2017-07-07T08:41:30.071Z,19.95
2017-07-07T08:43:58.263Z,19.00
2017-07-07T08:46:25.727Z,18.92
2017-07-07T08:48:53.169Z,17.85
2017-07-07T08:51:21.420Z,19.75
2017-07-07T08:53:48.879Z,18.48
2017-07-07T08:56:16.340Z,18.50
2017-07-07T08:58:43.776Z,20.50
2017-07-07T09:01:11.315Z,18.10
2017-07-07T09:03:38.854Z,18.60
2017-07-07T09:06:06.287Z,18.60
2017-07-07T09:08:33.725Z,18.60
2017-07-07T09:11:01.959Z,21.00
2017-07-07T09:13:29.421Z,20.83
2017-07-07T09:15:56.901Z,19.52
2017-07-07T09:18:25.160Z,18.80
2017-07-07T09:20:52.731Z,20.70
2017-07-07T09:23:20.198Z,20.40
2017-07-07T09:25:47.735Z,19.67
2017-07-07T09:28:15.183Z,18.43
2017-07-07T09:30:42.646Z,22.00
2017-07-07T09:33:10.888Z,19.40
2017-07-07T09:35:38.400Z,20.33
2017-07-07T09:38:05.864Z,19.70
2017-07-07T09:40:34.080Z,21.70
2017-07-07T09:43:01.529Z,20.23
2017-07-07T09:45:28.995Z,19.58
2017-07-07T09:47:56.463Z,22.23
2017-07-07T09:50:24.005Z,20.10
2017-07-07T09:52:51.523Z,21.80
2017-07-07T09:55:19.839Z,22.70
2017-07-07T09:57:47.303Z,20.75
2017-07-07T10:00:14.749Z,20.50
2017-07-07T10:02:42.254Z,19.12
2017-07-07T10:05:09.745Z,19.95
2017-07-07T10:07:37.279Z,19.35
2017-07-07T10:10:04.713Z,19.67
2017-07-07T10:12:32.162Z,20.60
2017-07-07T10:14:59.612Z,20.88
2017-07-07T10:17:27.148Z,20.83
2017-07-07T10:19:54.709Z,19.73
2017-07-07T10:22:22.194Z,20.27
2017-07-07T10:24:49.652Z,19.90
2017-07-07T10:27:17.098Z,19.95
2017-07-07T10:29:44.595Z,20.20
2017-07-07T10:32:12.869Z,22.00
2017-07-07T10:34:41.085Z,20.98
2017-07-07T10:37:08.524Z,21.65
2017-07-07T10:39:36.039Z,19.25
2017-07-07T10:42:03.888Z,19.20
2017-07-07T10:44:31.443Z,20.65
2017-07-07T10:46:59.002Z,20.85
2017-07-07T10:49:26.596Z,21.10
2017-07-07T10:51:54.862Z,20.50
2017-07-07T10:54:22.327Z,19.83
2017-07-07T10:56:50.537Z,22.00
2017-07-07T10:59:17.993Z,21.75
2017-07-07T11:01:45.443Z,20.45
2017-07-07T11:04:12.969Z,20.00
2017-07-07T11:06:41.214Z,20.02
2017-07-07T11:09:08.686Z,19.33
2017-07-07T11:11:36.253Z,19.15
2017-07-07T11:14:03.679Z,19.33
2017-07-07T11:16:31.123Z,17.42
2017-07-07T11:18:58.592Z,18.15
2017-07-07T11:21:26.066Z,19.30
2017-07-07T11:23:53.528Z,21.92
2017-07-07T11:26:20.963Z,21.48
2017-07-07T11:28:48.442Z,20.27
2017-07-07T11:31:15.878Z,22.83
2017-07-07T11:33:43.335Z,20.77
2017-07-07T11:36:10.803Z,20.98
2017-07-07T11:38:38.243Z,21.52
2017-07-07T11:41:05.699Z,20.77
2017-07-07T11:43:33.175Z,20.30
2017-07-07T11:46:00.618Z,20.17
2017-07-07T11:48:28.068Z,22.07
2017-07-07T11:50:55.535Z,21.33
2017-07-07T11:53:22.975Z,21.58
2017-07-07T11:55:50.520Z,20.80
2017-07-07T11:58:17.997Z,22.45
2017-07-07T12:00:45.454Z,24.20
2017-07-07T12:03:13.031Z,25.10
2017-07-07T12:05:40.568Z,23.90
2017-07-07T12:08:08.018Z,26.48
2017-07-07T12:10:35.503Z,23.38
2017-07-07T12:13:02.976Z,23.13
2017-07-07T12:15:31.219Z,22.80
2017-07-07T12:17:58.699Z,19.73
2017-07-07T12:20:27.024Z,17.98
2017-07-07T12:22:54.447Z,20.80
2017-07-07T12:25:22.682Z,18.75
2017-07-07T12:27:50.134Z,19.00
2017-07-07T12:30:17.613Z,17.85
2017-07-07T12:32:45.097Z,21.87
2017-07-07T12:35:12.584Z,23.42
2017-07-07T12:37:40.071Z,23.13
2017-07-07T12:40:07.512Z,21.95
2017-07-07T12:42:34.993Z,21.50
2017-07-07T12:45:02.574Z,20.23
2017-07-07T12:47:30.782Z,21.67
2017-07-07T12:49:58.212Z,22.00
2017-07-07T12:52:25.655Z,24.30
2017-07-07T12:54:53.915Z,22.10
2017-07-07T12:57:21.352Z,21.85
2017-07-07T12:59:48.828Z,21.87
2017-07-07T13:02:16.388Z,23.62
2017-07-07T13:04:43.863Z,21.45
2017-07-07T13:07:12.095Z,25.02
2017-07-07T13:09:39.759Z,23.92
2017-07-07T13:12:07.247Z,24.60
2017-07-07T13:14:35.530Z,25.00
2017-07-07T13:17:03.755Z,24.83
2017-07-07T13:19:31.239Z,23.97
2017-07-07T13:21:58.775Z,25.80
2017-07-07T13:24:26.270Z,23.45
2017-07-07T13:26:54.508Z,22.85
2017-07-07T13:29:22.591Z,24.98
2017-07-07T13:31:50.086Z,23.08
2017-07-07T13:34:17.528Z,25.23
2017-07-07T13:36:45.748Z,25.70
2017-07-07T13:39:13.243Z,24.60
2017-07-07T13:41:40.779Z,26.23
2017-07-07T13:44:08.361Z,26.30
2017-07-07T13:46:35.811Z,21.80
2017-07-07T13:49:03.259Z,20.15
2017-07-07T13:51:30.713Z,22.50
2017-07-07T13:53:58.184Z,19.03
2017-07-07T13:56:25.673Z,17.00
2017-07-07T13:58:53.874Z,18.37
2017-07-07T14:01:21.317Z,18.20
2017-07-07T14:03:48.811Z,17.20
2017-07-07T14:06:16.272Z,17.70
2017-07-07T14:08:43.737Z,18.00
2017-07-07T14:11:11.169Z,17.60
2017-07-07T14:13:38.637Z,16.80
2017-07-07T14:16:06.110Z,18.10
2017-07-07T14:18:33.534Z,15.13
2017-07-07T14:21:01.019Z,17.17
2017-07-07T14:23:28.462Z,16.08
2017-07-07T14:25:56.155Z,16.50
2017-07-07T14:28:24.403Z,17.17
2017-07-07T14:30:51.883Z,18.20
2017-07-07T14:33:20.160Z,18.48
2017-07-07T14:35:47.591Z,16.00
2017-07-07T14:38:15.041Z,16.00
2017-07-07T14:40:42.603Z,16.90
2017-07-07T14:43:10.064Z,16.52
2017-07-07T14:45:37.515Z,11.63
2017-07-07T14:48:04.990Z,10.75
2017-07-07T14:50:32.440Z,12.40
2017-07-07T14:52:59.916Z,9.83
2017-07-07T14:55:28.169Z,9.70
2017-07-07T14:57:55.795Z,11.50
2017-07-07T15:00:23.302Z,10.45
2017-07-07T15:02:51.666Z,10.05
2017-07-07T15:05:19.099Z,10.27
2017-07-07T15:07:46.556Z,11.40
2017-07-07T15:10:14.019Z,11.00
2017-07-07T15:12:41.549Z,10.80
2017-07-07T15:15:09.038Z,11.90
2017-07-07T15:17:36.519Z,13.40
2017-07-07T15:20:03.983Z,11.00
2017-07-07T15:22:32.640Z,11.10
2017-07-07T15:25:00.112Z,11.20
2017-07-07T15:27:27.550Z,9.90
2017-07-07T15:29:55.120Z,9.73
2017-07-07T15:32:22.572Z,10.90
2017-07-07T15:34:50.035Z,9.40
2017-07-07T15:37:17.512Z,9.93
2017-07-07T15:39:44.991Z,10.00
2017-07-07T15:42:12.607Z,8.65
2017-07-07T15:44:40.124Z,8.48
2017-07-07T15:47:07.628Z,8.20
2017-07-07T15:49:35.100Z,8.80
2017-07-07T15:52:03.327Z,8.88
2017-07-07T15:54:30.791Z,8.93
2017-07-07T15:56:58.237Z,9.20
2017-07-07T15:59:25.700Z,8.35
2017-07-07T16:01:53.168Z,8.85
2017-07-07T16:04:20.607Z,8.65
2017-07-07T16:06:48.092Z,7.55
2017-07-07T16:09:15.552Z,7.80
2017-07-07T16:11:43.710Z,7.68
2017-07-07T16:14:11.179Z,7.03
2017-07-07T16:16:38.604Z,8.10
2017-07-07T16:19:06.149Z,7.65
2017-07-07T16:21:33.653Z,7.65
2017-07-07T16:24:01.147Z,7.80
2017-07-07T16:26:28.649Z,8.23
2017-07-07T16:28:56.103Z,8.63
2017-07-07T16:31:23.580Z,9.30
2017-07-07T16:33:51.143Z,9.10
2017-07-07T16:36:19.403Z,8.65
2017-07-07T16:38:46.836Z,8.50
2017-07-07T16:41:14.284Z,8.77
2017-07-07T16:43:41.811Z,7.97
2017-07-07T16:46:09.274Z,8.32
2017-07-07T16:48:36.721Z,8.90
2017-07-07T16:51:04.937Z,8.35
2017-07-07T16:53:32.391Z,9.00
2017-07-07T16:55:59.846Z,8.20
2017-07-07T16:58:27.314Z,8.23
2017-07-07T17:00:54.783Z,9.00
2017-07-07T17:03:22.337Z,9.15
2017-07-07T17:05:49.763Z,8.88
2017-07-07T17:08:17.230Z,9.60
2017-07-07T17:10:44.688Z,9.90
2017-07-07T17:13:12.155Z,9.52
2017-07-07T17:15:39.602Z,9.80
2017-07-07T17:18:07.052Z,9.45
2017-07-07T17:20:34.532Z,9.85
2017-07-07T17:23:01.970Z,10.30
2017-07-07T17:25:29.416Z,9.38
2017-07-07T17:27:56.899Z,9.00
2017-07-07T17:30:24.356Z,8.93
2017-07-07T17:32:51.882Z,8.30
2017-07-07T17:35:19.359Z,8.30
2017-07-07T17:37:46.820Z,8.30
2017-07-07T17:40:14.303Z,7.60
2017-07-07T17:42:41.735Z,8.20
2017-07-07T17:45:09.285Z,8.27
2017-07-07T17:47:36.713Z,8.70
2017-07-07T17:50:04.313Z,8.20
2017-07-07T17:52:31.796Z,7.80
2017-07-07T17:55:00.040Z,7.50
2017-07-07T17:57:27.499Z,7.80
2017-07-07T17:59:54.933Z,7.40
2017-07-07T18:02:22.386Z,6.60
2017-07-07T18:04:49.833Z,7.43
2017-07-07T18:07:17.322Z,7.50
2017-07-07T18:09:44.763Z,7.80
2017-07-07T18:12:12.239Z,7.20
2017-07-07T18:14:39.689Z,7.93
2017-07-07T18:17:07.151Z,7.30
2017-07-07T18:19:34.636Z,7.30
2017-07-07T18:22:02.114Z,7.90
2017-07-07T18:24:29.593Z,8.00
2017-07-07T18:26:57.044Z,7.65
2017-07-07T18:29:24.471Z,7.90
2017-07-07T18:31:51.999Z,7.93
2017-07-07T18:34:20.240Z,7.80
2017-07-07T18:36:47.759Z,7.80
2017-07-07T18:39:15.253Z,7.87
2017-07-07T18:41:42.775Z,7.37
2017-07-07T18:44:10.224Z,7.62
2017-07-07T18:46:37.704Z,7.40
2017-07-07T18:49:05.276Z,7.37
2017-07-07T18:51:32.800Z,7.20
2017-07-07T18:54:00.251Z,7.35
2017-07-07T18:56:27.708Z,7.18
2017-07-07T18:58:55.174Z,7.10
2017-07-07T19:01:22.606Z,6.90
2017-07-07T19:03:50.059Z,7.10
2017-07-07T19:06:17.551Z,7.50
2017-07-07T19:08:45.047Z,7.95
2017-07-07T19:11:12.477Z,7.37
2017-07-07T19:13:39.938Z,8.77
2017-07-07T19:16:07.361Z,8.50
2017-07-07T19:18:34.826Z,8.85
2017-07-07T19:21:02.307Z,9.45
2017-07-07T19:23:29.771Z,9.00
2017-07-07T19:25:57.225Z,10.35
2017-07-07T19:28:24.950Z,10.47
2017-07-07T19:30:52.458Z,10.80
2017-07-07T19:33:19.899Z,11.48
2017-07-07T19:35:47.424Z,13.20
2017-07-07T19:38:14.918Z,12.55
2017-07-07T19:40:43.224Z,13.13
2017-07-07T19:43:11.461Z,14.70
2017-07-07T19:45:38.920Z,14.90
2017-07-07T19:48:06.483Z,14.93
2017-07-07T19:50:34.051Z,15.73
2017-07-07T19:53:01.584Z,15.87
2017-07-07T19:55:29.036Z,14.70
2017-07-07T19:57:56.484Z,15.32
2017-07-07T20:00:24.032Z,15.43
2017-07-07T20:02:51.456Z,16.48
2017-07-07T20:05:19.722Z,16.12
2017-07-07T20:07:47.324Z,16.40
2017-07-07T20:10:14.803Z,16.95
2017-07-07T20:12:42.263Z,15.53
2017-07-07T20:15:09.794Z,15.68
2017-07-07T20:17:37.251Z,17.50
2017-07-07T20:20:04.734Z,16.55
2017-07-07T20:22:32.181Z,16.87
2017-07-07T20:24:59.629Z,17.45
2017-07-07T20:27:27.098Z,17.50
2017-07-07T20:29:54.665Z,17.60
2017-07-07T20:32:22.107Z,17.67
2017-07-07T20:34:49.578Z,18.27
2017-07-07T20:37:17.036Z,17.95
2017-07-07T20:39:44.489Z,18.30
2017-07-07T20:42:12.056Z,19.00
2017-07-07T20:44:39.530Z,18.70
2017-07-07T20:47:08.080Z,17.80
2017-07-07T20:49:35.523Z,29.75
2017-07-07T20:52:03.072Z,21.95
2017-07-07T20:54:30.555Z,23.80
2017-07-07T20:56:58.026Z,22.40
2017-07-07T20:59:25.515Z,20.90
2017-07-07T21:01:52.958Z,20.17
2017-07-07T21:04:21.155Z,22.87
2017-07-07T21:06:48.627Z,25.62
2017-07-07T21:09:16.127Z,26.75
2017-07-07T21:11:43.571Z,23.73
2017-07-07T21:14:11.119Z,23.50
2017-07-07T21:16:39.551Z,22.67
2017-07-07T21:19:07.020Z,23.50
2017-07-07T21:21:34.533Z,22.65
2017-07-07T21:24:02.067Z,21.02
2017-07-07T21:26:29.528Z,22.23
2017-07-07T21:28:57.019Z,23.20
2017-07-07T21:31:25.237Z,22.13
2017-07-07T21:33:52.680Z,23.27
2017-07-07T21:36:20.173Z,21.87
2017-07-07T21:38:47.671Z,25.10
2017-07-07T21:41:15.946Z,23.20
2017-07-07T21:43:44.305Z,24.17
2017-07-07T21:46:11.839Z,26.02
2017-07-07T21:48:39.304Z,27.35
2017-07-07T21:51:06.913Z,28.70
2017-07-07T21:53:34.470Z,28.98
2017-07-07T21:56:02.698Z,30.62
2017-07-07T21:58:30.162Z,31.67
2017-07-07T22:00:57.713Z,29.70
2017-07-07T22:03:25.167Z,29.60
2017-07-07T22:05:52.744Z,29.95
2017-07-07T22:08:20.210Z,30.87
2017-07-07T22:10:47.918Z,30.20
2017-07-07T22:13:15.353Z,31.77
2017-07-07T22:15:42.868Z,31.98
2017-07-07T22:18:10.338Z,32.42
2017-07-07T22:20:37.884Z,34.40
2017-07-07T22:23:05.438Z,31.55
2017-07-07T22:25:32.962Z,30.58
2017-07-07T22:28:00.391Z,30.77
2017-07-07T22:30:27.868Z,31.42
2017-07-07T22:32:55.433Z,32.63
2017-07-07T22:35:23.607Z,31.95
2017-07-07T22:37:51.065Z,31.42
2017-07-07T22:40:18.516Z,32.70
2017-07-07T22:42:46.015Z,33.53
2017-07-07T22:45:13.790Z,32.13
2017-07-07T22:47:41.324Z,32.65
2017-07-07T22:50:08.771Z,32.80
2017-07-07T22:52:36.393Z,31.67
2017-07-07T22:55:03.800Z,33.40
2017-07-07T22:57:31.251Z,34.00
2017-07-07T22:59:58.809Z,33.45
2017-07-07T23:02:26.241Z,36.20
2017-07-07T23:04:53.693Z,37.83
2017-07-07T23:07:21.151Z,38.10
2017-07-07T23:09:48.592Z,40.63
2017-07-07T23:12:16.098Z,43.58
2017-07-07T23:14:43.719Z,46.25
2017-07-07T23:17:11.135Z,48.72
2017-07-07T23:19:39.375Z,50.55
2017-07-07T23:22:06.830Z,54.08
2017-07-07T23:24:34.471Z,52.80
2017-07-07T23:27:01.935Z,54.28
2017-07-07T23:29:29.371Z,49.75
2017-07-07T23:31:56.888Z,50.92
2017-07-07T23:34:24.431Z,50.30
2017-07-07T23:36:51.871Z,52.22
2017-07-07T23:39:19.359Z,53.40
2017-07-07T23:41:46.903Z,52.42
2017-07-07T23:44:14.343Z,50.42
2017-07-07T23:46:41.810Z,51.28
2017-07-07T23:49:09.275Z,56.27
2017-07-07T23:51:37.015Z,52.53
2017-07-07T23:54:04.464Z,68.25
2017-07-07T23:56:31.963Z,54.13
2017-07-07T23:58:59.408Z,53.05
